Time;durP1;ratioP1;P1;durP2;ratioP2;P2;SDS_P1;SDS_P2;PMS_P1;PMS_P2;Temp;Humidity;BMP_temperature;BMP_pressure;BME280_temperature;BME280_humidity;BME280_pressure;Samples;Min_cycle;Max_cycle;Signal;HPM_P1;HPM_P2
2023/09/23 00:02:22;;;;;;;31.30;30.00;;;12.00;99.90;;;;;;4974929;28;20392;-72
2023/09/23 00:04:48;;;;;;;20.90;19.83;;;12.10;99.90;;;;;;4983007;28;20038;-72
2023/09/23 00:07:14;;;;;;;20.37;19.47;;;12.00;99.90;;;;;;4967588;28;20290;-72
2023/09/23 00:09:40;;;;;;;17.60;16.80;;;12.00;99.90;;;;;;4976422;28;20040;-72
2023/09/23 00:12:06;;;;;;;20.77;19.80;;;12.00;99.90;;;;;;4993122;28;20041;-72
2023/09/23 00:14:32;;;;;;;15.60;15.00;;;12.00;99.90;;;;;;4990659;28;20050;-71
2023/09/23 00:16:58;;;;;;;22.00;20.90;;;12.00;99.90;;;;;;4985665;28;20296;-71
2023/09/23 00:19:25;;;;;;;22.20;21.27;;;12.00;99.90;;;;;;4981345;28;21058;-72
2023/09/23 00:21:51;;;;;;;23.17;22.20;;;12.00;99.90;;;;;;4986810;28;20058;-72
2023/09/23 00:24:17;;;;;;;24.30;23.27;;;12.00;99.90;;;;;;4986309;28;20308;-72
2023/09/23 00:26:43;;;;;;;23.87;22.73;;;12.00;99.90;;;;;;4991550;28;20277;-72
2023/09/23 00:29:11;;;;;;;21.40;20.50;;;12.10;99.90;;;;;;4974411;28;20305;-72
2023/09/23 00:31:37;;;;;;;31.93;30.63;;;12.10;99.90;;;;;;4989081;28;20285;-72
2023/09/23 00:34:03;;;;;;;43.33;41.47;;;12.10;99.90;;;;;;4987868;28;20293;-72
2023/09/23 00:36:28;;;;;;;22.10;21.17;;;12.10;99.90;;;;;;4993371;28;20102;-72
2023/09/23 00:38:56;;;;;;;28.70;27.43;;;12.10;99.90;;;;;;4986680;28;20887;-72
2023/09/23 00:41:23;;;;;;;19.63;18.67;;;12.10;99.90;;;;;;4987468;28;20050;-71
2023/09/23 00:43:51;;;;;;;24.73;23.47;;;12.10;99.90;;;;;;4986038;28;20289;-71
2023/09/23 00:46:22;;;;;;;24.97;23.90;;;12.00;99.90;;;;;;4994957;28;20284;-71
2023/09/23 00:48:48;;;;;;;21.90;20.90;;;12.00;99.90;;;;;;4987169;28;20305;-71
2023/09/23 00:51:15;;;;;;;27.83;26.60;;;12.00;99.90;;;;;;4983679;28;20371;-71
2023/09/23 00:53:42;;;;;;;26.33;25.20;;;11.90;99.90;;;;;;4989374;28;20697;-71
2023/09/23 00:56:08;;;;;;;20.87;19.87;;;11.90;99.90;;;;;;4989779;28;20391;-71
2023/09/23 00:58:37;;;;;;;22.30;21.30;;;11.90;99.90;;;;;;4989431;28;21097;-71
2023/09/23 01:01:05;;;;;;;19.57;18.57;;;11.80;99.90;;;;;;4991015;28;20309;-71
2023/09/23 01:03:31;;;;;;;24.00;22.87;;;11.80;99.90;;;;;;4991522;28;20293;-71
2023/09/23 01:06:04;;;;;;;26.67;25.07;;;11.70;99.90;;;;;;4987667;28;20293;-71
2023/09/23 01:08:30;;;;;;;17.33;16.50;;;11.70;99.90;;;;;;4987547;28;20141;-71
2023/09/23 01:10:56;;;;;;;13.23;12.53;;;11.70;99.90;;;;;;4985296;28;20376;-71
2023/09/23 01:13:29;;;;;;;16.13;15.20;;;11.60;99.90;;;;;;4984542;28;20034;-71
2023/09/23 01:15:55;;;;;;;14.80;14.03;;;11.60;99.90;;;;;;4988804;28;20688;-71
2023/09/23 01:18:28;;;;;;;13.33;12.50;;;11.50;99.90;;;;;;4978531;28;20278;-71
2023/09/23 01:21:00;;;;;;;12.00;11.30;;;11.50;99.90;;;;;;4978840;28;20306;-72
2023/09/23 01:23:27;;;;;;;13.63;12.93;;;11.50;99.90;;;;;;4985035;28;20285;-70
2023/09/23 01:25:53;;;;;;;10.17;9.40;;;11.50;99.90;;;;;;4980374;28;20290;-70
2023/09/23 01:28:18;;;;;;;19.40;18.20;;;11.40;99.90;;;;;;4983993;28;20360;-70
2023/09/23 01:30:45;;;;;;;10.77;9.97;;;11.40;99.90;;;;;;4991514;28;20654;-70
2023/09/23 01:33:14;;;;;;;16.03;14.97;;;11.40;99.90;;;;;;4990468;28;20054;-70
2023/09/23 01:35:40;;;;;;;20.17;19.07;;;11.40;99.90;;;;;;4991565;28;20289;-70
2023/09/23 01:38:07;;;;;;;16.17;15.27;;;11.40;99.90;;;;;;4983826;28;20875;-70
2023/09/23 01:40:39;;;;;;;16.80;15.70;;;11.40;99.90;;;;;;4991195;28;20324;-70
2023/09/23 01:43:06;;;;;;;16.97;16.07;;;11.40;99.90;;;;;;4985168;28;20282;-70
2023/09/23 01:45:33;;;;;;;14.27;13.47;;;11.40;99.90;;;;;;4985725;28;20286;-70
2023/09/23 01:47:59;;;;;;;22.33;21.23;;;11.40;99.90;;;;;;4970054;28;20835;-70
2023/09/23 01:50:26;;;;;;;13.30;12.43;;;11.40;99.90;;;;;;4991125;28;20038;-70
2023/09/23 01:52:54;;;;;;;13.13;12.43;;;11.40;99.90;;;;;;4983381;28;20038;-70
2023/09/23 01:55:20;;;;;;;15.23;14.37;;;11.30;99.90;;;;;;4990512;28;20377;-70
2023/09/23 01:57:48;;;;;;;12.50;11.57;;;11.30;99.90;;;;;;4974439;28;20290;-70
2023/09/23 02:00:18;;;;;;;12.83;12.07;;;11.20;99.90;;;;;;4962432;28;20786;-70
2023/09/23 02:02:48;;;;;;;14.33;13.57;;;11.20;99.90;;;;;;4962239;28;20293;-70
2023/09/23 02:05:15;;;;;;;17.97;16.87;;;11.20;99.90;;;;;;4983194;28;20770;-70
2023/09/23 02:07:41;;;;;;;16.37;15.37;;;11.10;99.90;;;;;;4989226;28;20308;-70
2023/09/23 02:10:14;;;;;;;12.20;11.43;;;11.10;99.90;;;;;;4985451;28;20476;-70
2023/09/23 02:12:42;;;;;;;14.00;13.10;;;11.10;99.90;;;;;;4990864;28;20860;-72
2023/09/23 02:15:08;;;;;;;15.37;14.47;;;11.00;99.90;;;;;;4985892;28;20376;-73
2023/09/23 02:17:37;;;;;;;15.27;14.40;;;11.10;99.90;;;;;;4982658;28;20277;-73
2023/09/23 02:20:11;;;;;;;17.27;16.23;;;11.10;99.90;;;;;;4978362;28;20654;-72
2023/09/23 02:22:37;;;;;;;15.00;14.00;;;11.10;99.90;;;;;;4988922;28;20741;-73
2023/09/23 02:25:04;;;;;;;18.83;17.73;;;11.20;99.90;;;;;;4982536;28;20290;-73
2023/09/23 02:27:29;;;;;;;18.00;16.97;;;11.20;99.90;;;;;;4996056;28;20052;-73
2023/09/23 02:29:55;;;;;;;20.63;19.53;;;11.20;99.90;;;;;;4988508;28;20297;-73
2023/09/23 02:32:21;;;;;;;15.63;14.80;;;11.20;99.90;;;;;;4982556;28;20053;-73
2023/09/23 02:34:46;;;;;;;15.00;14.03;;;11.20;99.90;;;;;;4987060;28;20485;-73
2023/09/23 02:37:12;;;;;;;20.30;19.27;;;11.10;99.90;;;;;;4990091;28;20074;-71
2023/09/23 02:39:38;;;;;;;17.27;16.30;;;11.10;99.90;;;;;;4986462;28;20495;-70
2023/09/23 02:42:05;;;;;;;15.17;14.30;;;11.10;99.90;;;;;;4971181;28;20859;-70
2023/09/23 02:44:31;;;;;;;17.73;16.80;;;11.00;99.90;;;;;;4983892;28;20046;-70
2023/09/23 02:46:56;;;;;;;17.40;16.33;;;11.00;99.90;;;;;;4986506;28;20797;-70
2023/09/23 02:49:22;;;;;;;17.50;16.50;;;11.00;99.90;;;;;;4990020;28;20030;-70
2023/09/23 02:51:49;;;;;;;15.83;15.03;;;11.00;99.90;;;;;;4985699;28;20494;-70
2023/09/23 02:54:18;;;;;;;15.37;14.27;;;11.00;99.90;;;;;;4989463;28;20134;-70
2023/09/23 02:56:48;;;;;;;16.73;15.77;;;11.00;99.90;;;;;;4983368;28;20599;-70
2023/09/23 02:59:15;;;;;;;16.93;15.97;;;11.10;99.90;;;;;;4989768;28;20286;-70
2023/09/23 03:01:45;;;;;;;15.60;14.87;;;11.00;99.90;;;;;;4989444;28;20360;-70
2023/09/23 03:04:23;;;;;;;12.07;11.27;;;11.10;99.90;;;;;;4989522;28;20309;-70
2023/09/23 03:06:56;;;;;;;15.90;15.07;;;11.00;99.90;;;;;;4984191;28;20313;-70
2023/09/23 03:09:24;;;;;;;18.97;18.07;;;11.00;99.90;;;;;;4990103;28;20286;-70
2023/09/23 03:11:55;;;;;;;20.47;19.40;;;11.00;99.90;;;;;;4988247;28;20282;-70
2023/09/23 03:14:40;;;;;;;17.67;16.80;;;11.00;99.90;;;;;;4988647;28;20321;-70
2023/09/23 03:17:07;;;;;;;18.45;17.50;;;11.10;99.90;;;;;;4983504;28;20303;-70
2023/09/23 03:19:33;;;;;;;17.33;16.30;;;11.10;99.90;;;;;;4989671;28;20050;-70
2023/09/23 03:22:00;;;;;;;21.97;21.00;;;11.20;99.90;;;;;;4983252;28;20333;-70
2023/09/23 03:24:28;;;;;;;23.27;21.97;;;11.20;99.90;;;;;;5005349;28;20914;-70
2023/09/23 03:27:00;;;;;;;18.07;17.23;;;11.20;99.90;;;;;;4981147;28;20298;-70
2023/09/23 03:29:30;;;;;;;30.20;28.73;;;11.20;99.90;;;;;;4987814;28;20361;-70
2023/09/23 03:31:56;;;;;;;27.40;26.03;;;11.20;99.90;;;;;;4983779;28;20615;-70
2023/09/23 03:34:22;;;;;;;28.00;26.73;;;11.30;99.90;;;;;;4987415;28;20289;-70
2023/09/23 03:36:48;;;;;;;32.70;31.20;;;11.30;99.90;;;;;;4988349;28;20304;-70
2023/09/23 03:39:13;;;;;;;28.80;27.43;;;11.30;99.90;;;;;;4974142;28;20050;-70
2023/09/23 03:41:41;;;;;;;25.53;24.33;;;11.40;99.90;;;;;;4985964;28;20039;-70
2023/09/23 03:44:09;;;;;;;29.73;28.10;;;11.40;99.90;;;;;;4985430;28;20073;-70
2023/09/23 03:46:36;;;;;;;21.17;20.13;;;11.50;99.90;;;;;;4983190;28;20797;-70
2023/09/23 03:49:02;;;;;;;21.50;20.50;;;11.60;99.90;;;;;;4968598;28;20286;-70
2023/09/23 03:51:27;;;;;;;20.43;19.43;;;11.60;99.90;;;;;;4987308;28;20277;-70
2023/09/23 03:53:53;;;;;;;26.70;25.40;;;11.70;99.90;;;;;;4987446;28;20084;-70
2023/09/23 03:56:24;;;;;;;27.07;25.57;;;11.70;99.90;;;;;;4988958;28;20038;-70
2023/09/23 03:58:51;;;;;;;26.47;25.23;;;11.80;99.90;;;;;;4970702;28;20062;-70
2023/09/23 04:01:17;;;;;;;30.57;29.13;;;11.80;99.90;;;;;;4987585;28;20667;-70
2023/09/23 04:03:43;;;;;;;28.07;26.77;;;11.80;99.90;;;;;;4967636;28;20301;-70
2023/09/23 04:06:08;;;;;;;25.87;24.63;;;11.90;99.90;;;;;;4970850;28;20129;-70
2023/09/23 04:08:34;;;;;;;21.17;19.83;;;11.90;99.90;;;;;;4977241;28;20057;-70
2023/09/23 04:11:05;;;;;;;22.93;21.73;;;11.90;99.90;;;;;;5000623;28;20410;-70
2023/09/23 04:13:31;;;;;;;32.20;30.43;;;11.90;99.90;;;;;;4981748;28;20049;-70
2023/09/23 04:16:00;;;;;;;20.87;19.83;;;11.90;99.90;;;;;;4982939;28;20297;-70
2023/09/23 04:18:27;;;;;;;22.70;21.57;;;11.80;99.90;;;;;;4974451;28;20282;-70
2023/09/23 04:20:53;;;;;;;19.40;18.47;;;11.70;99.90;;;;;;4982422;28;20388;-70
2023/09/23 04:23:20;;;;;;;19.93;18.93;;;11.70;99.90;;;;;;4994405;28;20364;-70
2023/09/23 04:25:48;;;;;;;17.87;16.90;;;11.60;99.90;;;;;;4987764;28;20474;-70
2023/09/23 04:28:13;;;;;;;15.17;14.37;;;11.50;99.90;;;;;;4986952;28;20281;-70
2023/09/23 04:30:40;;;;;;;21.77;20.50;;;11.50;99.90;;;;;;4984328;28;20296;-70
2023/09/23 04:33:05;;;;;;;21.87;20.73;;;11.40;99.90;;;;;;4985475;28;20054;-70
2023/09/23 04:35:31;;;;;;;19.93;18.83;;;11.40;99.90;;;;;;4998069;28;20298;-70
2023/09/23 04:37:58;;;;;;;16.40;15.60;;;11.30;99.90;;;;;;4987579;28;20042;-71
2023/09/23 04:40:24;;;;;;;14.30;13.30;;;11.30;99.90;;;;;;4987753;28;20077;-70
2023/09/23 04:42:49;;;;;;;15.60;14.70;;;11.20;99.90;;;;;;4980130;28;20332;-70
2023/09/23 04:45:17;;;;;;;15.70;14.83;;;11.20;99.90;;;;;;4974005;28;20108;-70
2023/09/23 04:47:47;;;;;;;20.30;19.30;;;11.20;99.90;;;;;;4987487;28;20084;-70
2023/09/23 04:50:13;;;;;;;26.57;24.83;;;11.10;99.90;;;;;;4971487;28;20277;-70
2023/09/23 04:52:39;;;;;;;23.33;22.13;;;11.10;99.90;;;;;;4982384;28;20289;-70
2023/09/23 04:55:06;;;;;;;31.93;30.37;;;11.00;99.90;;;;;;4978329;28;20045;-70
2023/09/23 04:57:32;;;;;;;31.63;30.33;;;11.00;99.90;;;;;;4987029;28;20371;-70
2023/09/23 04:59:58;;;;;;;32.73;31.17;;;10.90;99.90;;;;;;4984917;28;20290;-70
2023/09/23 05:02:24;;;;;;;37.33;35.70;;;10.90;99.90;;;;;;4983877;28;20047;-70
2023/09/23 05:04:53;;;;;;;36.33;34.70;;;10.90;99.90;;;;;;4982124;28;20783;-70
2023/09/23 05:07:25;;;;;;;23.40;22.40;;;10.90;99.90;;;;;;4986113;28;20285;-70
2023/09/23 05:09:51;;;;;;;18.27;17.23;;;10.90;99.90;;;;;;4987209;28;20293;-70
2023/09/23 05:12:18;;;;;;;15.60;14.80;;;10.90;99.90;;;;;;4989513;28;20285;-70
2023/09/23 05:14:44;;;;;;;15.47;14.67;;;10.90;99.90;;;;;;4991494;28;20569;-70
2023/09/23 05:17:21;;;;;;;15.63;14.83;;;10.90;99.90;;;;;;4985375;28;20301;-70
2023/09/23 05:19:47;;;;;;;12.63;11.73;;;10.90;99.90;;;;;;4986371;28;20324;-70
2023/09/23 05:22:13;;;;;;;15.17;14.20;;;11.00;99.90;;;;;;4988794;28;20333;-70
2023/09/23 05:24:39;;;;;;;12.60;11.90;;;11.00;99.90;;;;;;4988040;28;20039;-70
2023/09/23 05:27:05;;;;;;;13.93;13.03;;;11.00;99.90;;;;;;4988892;28;20069;-70
2023/09/23 05:29:31;;;;;;;15.67;14.67;;;11.10;99.90;;;;;;4991472;28;20285;-70
2023/09/23 05:31:57;;;;;;;16.30;15.30;;;11.10;99.90;;;;;;4985552;28;20532;-70
2023/09/23 05:34:23;;;;;;;16.30;15.30;;;11.10;99.90;;;;;;4986769;28;20042;-70
2023/09/23 05:36:48;;;;;;;17.07;16.17;;;11.10;99.90;;;;;;4987722;28;20797;-70
2023/09/23 05:39:19;;;;;;;17.40;16.30;;;11.20;99.90;;;;;;4985955;28;20286;-70
2023/09/23 05:41:49;;;;;;;16.83;15.67;;;11.20;99.90;;;;;;4985268;28;20050;-70
2023/09/23 05:44:18;;;;;;;15.57;14.57;;;11.20;99.90;;;;;;4987636;28;20281;-70
2023/09/23 05:46:45;;;;;;;24.07;22.33;;;11.30;99.90;;;;;;4974225;28;20347;-70
2023/09/23 05:49:14;;;;;;;31.73;29.93;;;11.30;99.90;;;;;;4988021;28;20317;-70
2023/09/23 05:51:39;;;;;;;27.77;25.87;;;11.40;99.90;;;;;;4983102;28;20329;-70
2023/09/23 05:54:08;;;;;;;24.83;23.30;;;11.40;99.90;;;;;;4988859;28;20305;-70
2023/09/23 05:56:33;;;;;;;24.77;22.87;;;11.50;99.90;;;;;;4991287;28;20046;-70
2023/09/23 05:58:59;;;;;;;23.97;22.27;;;11.50;99.90;;;;;;5001380;28;20397;-70
2023/09/23 06:01:25;;;;;;;25.17;23.47;;;11.60;99.90;;;;;;4990176;28;20494;-70
2023/09/23 06:03:50;;;;;;;29.73;27.73;;;11.70;99.90;;;;;;4990335;28;20092;-70
2023/09/23 06:06:16;;;;;;;30.63;28.93;;;11.70;99.90;;;;;;4989563;28;20600;-70
2023/09/23 06:08:42;;;;;;;29.63;27.73;;;11.70;99.90;;;;;;5005169;28;20450;-70
2023/09/23 06:11:10;;;;;;;28.50;26.37;;;11.80;99.90;;;;;;4991001;28;20074;-70
2023/09/23 06:13:36;;;;;;;29.67;27.77;;;11.80;99.90;;;;;;4986597;28;20788;-70
2023/09/23 06:16:05;;;;;;;32.70;30.73;;;11.90;99.90;;;;;;4985465;28;20281;-70
2023/09/23 06:18:33;;;;;;;33.03;31.03;;;12.10;99.90;;;;;;4969142;28;20045;-70
2023/09/23 06:20:59;;;;;;;35.80;33.63;;;12.20;99.90;;;;;;4990689;28;20309;-70
2023/09/23 06:23:25;;;;;;;33.50;31.50;;;12.40;99.90;;;;;;4987693;28;20293;-70
2023/09/23 06:26:01;;;;;;;43.93;41.47;;;12.60;99.90;;;;;;4989951;28;20286;-70
2023/09/23 06:28:29;;;;;;;39.33;37.23;;;12.80;99.90;;;;;;4988263;28;20288;-70
2023/09/23 06:30:55;;;;;;;41.10;38.50;;;13.10;99.90;;;;;;4989491;28;20297;-70
2023/09/23 06:33:21;;;;;;;38.30;36.20;;;13.20;99.90;;;;;;4985660;28;20431;-71
2023/09/23 06:35:48;;;;;;;43.50;41.27;;;13.40;99.90;;;;;;4990425;28;20050;-71
2023/09/23 06:38:14;;;;;;;43.93;41.43;;;13.50;99.90;;;;;;4994865;28;20281;-71
2023/09/23 06:40:39;;;;;;;41.30;39.07;;;13.60;99.90;;;;;;4987652;28;20887;-70
2023/09/23 06:43:05;;;;;;;43.20;41.00;;;13.60;99.90;;;;;;4985426;28;20361;-71
2023/09/23 06:45:31;;;;;;;48.70;46.40;;;13.70;99.90;;;;;;4971579;28;20030;-70
2023/09/23 06:47:57;;;;;;;53.20;50.37;;;13.70;99.90;;;;;;4988944;28;20402;-71
2023/09/23 06:50:23;;;;;;;61.37;58.30;;;13.70;99.90;;;;;;4988402;28;20312;-71
2023/09/23 06:52:49;;;;;;;54.10;51.50;;;13.70;99.90;;;;;;4987947;28;20042;-71
2023/09/23 06:55:14;;;;;;;56.23;53.20;;;13.70;99.90;;;;;;4987429;28;20486;-70
2023/09/23 06:57:40;;;;;;;55.37;52.63;;;13.70;99.90;;;;;;4989285;28;20065;-70
2023/09/23 07:00:07;;;;;;;55.93;53.33;;;13.70;99.90;;;;;;4986302;28;20049;-70
2023/09/23 07:02:33;;;;;;;63.63;60.57;;;13.70;99.90;;;;;;4989189;28;20050;-70
2023/09/23 07:04:59;;;;;;;57.47;54.87;;;13.60;99.90;;;;;;4970384;28;20403;-70
2023/09/23 07:07:26;;;;;;;54.43;51.57;;;13.60;99.90;;;;;;4987571;28;20305;-70
2023/09/23 07:09:51;;;;;;;63.27;60.30;;;13.60;99.90;;;;;;4989644;28;20705;-70
2023/09/23 07:12:17;;;;;;;57.50;54.70;;;13.50;99.90;;;;;;4988984;28;20281;-71
2023/09/23 07:14:43;;;;;;;58.83;56.13;;;13.50;99.90;;;;;;4981292;28;20513;-71
2023/09/23 07:17:08;;;;;;;59.37;56.50;;;13.50;99.90;;;;;;4983141;28;20134;-71
2023/09/23 07:19:34;;;;;;;60.87;58.07;;;13.50;99.90;;;;;;4983138;28;20053;-71
2023/09/23 07:22:01;;;;;;;62.83;59.93;;;13.60;99.90;;;;;;4985899;28;20050;-72
2023/09/23 07:24:27;;;;;;;58.53;55.83;;;13.60;99.90;;;;;;4968085;28;20285;-72
2023/09/23 07:26:58;;;;;;;54.33;51.70;;;13.70;99.90;;;;;;4984386;28;20282;-72
2023/09/23 07:29:24;;;;;;;56.60;54.00;;;13.80;99.90;;;;;;5003002;28;20713;-72
2023/09/23 07:31:50;;;;;;;69.50;66.23;;;13.90;99.90;;;;;;4986297;28;20287;-72
2023/09/23 07:34:16;;;;;;;65.63;62.63;;;14.00;99.90;;;;;;4981049;28;20297;-72
2023/09/23 07:36:43;;;;;;;45.37;43.20;;;14.10;99.90;;;;;;4985645;28;20781;-72
2023/09/23 07:39:10;;;;;;;51.40;49.00;;;14.10;99.90;;;;;;4986950;28;20045;-72
2023/09/23 07:41:36;;;;;;;48.70;46.23;;;14.20;99.90;;;;;;4983509;28;20301;-72
2023/09/23 07:44:03;;;;;;;43.10;40.97;;;14.20;99.90;;;;;;4983502;28;20360;-72
2023/09/23 07:46:29;;;;;;;48.70;46.57;;;14.30;99.90;;;;;;4980676;28;20957;-72
2023/09/23 07:48:56;;;;;;;48.47;46.47;;;14.30;99.90;;;;;;4987306;28;20284;-72
2023/09/23 07:51:21;;;;;;;46.73;44.50;;;14.40;99.90;;;;;;4984682;28;20489;-72
2023/09/23 07:53:47;;;;;;;56.07;53.73;;;14.50;99.90;;;;;;4969431;28;20379;-72
2023/09/23 07:56:13;;;;;;;51.20;48.90;;;14.50;99.90;;;;;;4982168;28;20087;-72
2023/09/23 08:01:05;;;;;;;40.37;38.57;;;14.70;99.90;;;;;;5010294;23;20107;-73
2023/09/23 08:03:31;;;;;;;41.97;40.07;;;14.70;99.90;;;;;;5002171;28;20438;-73
2023/09/23 08:05:57;;;;;;;41.93;40.07;;;14.90;99.90;;;;;;5007849;28;20360;-73
2023/09/23 08:08:22;;;;;;;44.33;42.43;;;14.90;99.90;;;;;;5005190;28;20172;-73
2023/09/23 08:10:51;;;;;;;47.07;44.97;;;14.90;99.90;;;;;;5007377;28;20038;-73
2023/09/23 08:13:19;;;;;;;50.23;47.87;;;14.90;99.90;;;;;;4984096;28;20124;-73
2023/09/23 08:15:45;;;;;;;50.47;48.07;;;14.90;99.90;;;;;;5006036;28;20293;-73
2023/09/23 08:18:12;;;;;;;47.70;45.70;;;15.00;99.90;;;;;;5006734;28;20288;-73
2023/09/23 08:20:39;;;;;;;43.83;41.83;;;15.00;99.90;;;;;;5001494;28;20346;-74
2023/09/23 08:23:05;;;;;;;41.23;39.43;;;15.10;99.90;;;;;;5005863;28;20277;-74
2023/09/23 08:25:32;;;;;;;44.03;41.93;;;15.20;99.90;;;;;;4987250;28;20304;-74
2023/09/23 08:27:57;;;;;;;43.10;41.13;;;15.40;99.90;;;;;;5004144;28;20648;-73
2023/09/23 08:30:23;;;;;;;51.80;49.40;;;15.50;99.90;;;;;;4979155;28;20282;-72
2023/09/23 08:32:49;;;;;;;55.97;53.37;;;15.60;99.80;;;;;;5019448;28;20076;-73
2023/09/23 08:35:15;;;;;;;48.63;46.43;;;15.60;98.20;;;;;;5010277;28;20069;-73
2023/09/23 08:37:41;;;;;;;40.97;39.00;;;15.70;97.20;;;;;;5007247;28;21056;-73
2023/09/23 08:40:10;;;;;;;66.70;63.63;;;15.80;97.60;;;;;;4992591;28;20152;-73
2023/09/23 08:42:40;;;;;;;41.93;39.87;;;15.90;94.40;;;;;;5008526;28;20325;-73
2023/09/23 08:45:08;;;;;;;46.93;45.00;;;16.00;91.20;;;;;;5008057;28;20285;-73
2023/09/23 08:47:36;;;;;;;51.17;48.87;;;16.10;93.80;;;;;;5008922;28;20301;-73
2023/09/23 08:50:03;;;;;;;57.20;54.77;;;16.10;92.10;;;;;;5001894;28;20378;-73
2023/09/23 08:52:31;;;;;;;59.93;57.40;;;16.00;91.50;;;;;;5004442;28;20299;-73
2023/09/23 08:54:56;;;;;;;67.03;64.20;;;16.00;92.50;;;;;;5010258;28;20300;-73
2023/09/23 08:57:23;;;;;;;62.97;60.07;;;15.90;92.80;;;;;;5004516;28;20284;-73
2023/09/23 08:59:49;;;;;;;76.27;73.07;;;15.90;92.90;;;;;;5015501;28;20408;-73
2023/09/23 09:02:22;;;;;;;70.17;67.33;;;15.80;91.80;;;;;;4992129;28;20312;-73
2023/09/23 09:04:52;;;;;;;66.93;64.17;;;15.70;92.60;;;;;;5007709;28;20099;-73
2023/09/23 09:07:18;;;;;;;66.43;63.77;;;15.80;93.10;;;;;;5000066;28;20305;-73
2023/09/23 09:09:44;;;;;;;65.93;63.10;;;15.90;93.30;;;;;;5011523;28;20307;-73
2023/09/23 09:12:10;;;;;;;54.37;51.90;;;16.10;93.90;;;;;;5008264;28;20042;-73
2023/09/23 09:14:36;;;;;;;49.77;47.67;;;16.20;91.50;;;;;;5009594;28;20037;-73
2023/09/23 09:17:01;;;;;;;58.40;55.90;;;16.50;91.80;;;;;;5006456;28;20042;-73
2023/09/23 09:19:27;;;;;;;68.10;65.27;;;16.70;92.00;;;;;;4995184;28;20389;-73
2023/09/23 09:21:54;;;;;;;62.87;60.27;;;16.80;88.50;;;;;;5005331;28;20120;-73
2023/09/23 09:24:22;;;;;;;57.93;55.37;;;16.80;90.60;;;;;;5002655;28;20115;-73
2023/09/23 09:26:49;;;;;;;64.80;61.90;;;16.80;89.20;;;;;;5029925;28;20276;-73
2023/09/23 09:29:16;;;;;;;58.70;56.20;;;16.70;87.30;;;;;;5011146;28;20280;-74
2023/09/23 09:31:44;;;;;;;56.40;54.13;;;16.70;89.40;;;;;;4996848;28;20383;-74
2023/09/23 09:34:11;;;;;;;63.47;60.73;;;16.70;89.40;;;;;;5010365;28;20293;-73
2023/09/23 09:36:40;;;;;;;61.07;58.37;;;16.80;89.60;;;;;;5007866;28;20299;-73
2023/09/23 09:39:10;;;;;;;96.50;92.30;;;16.90;88.80;;;;;;5009302;28;20743;-74
2023/09/23 09:41:50;;;;;;;92.90;89.17;;;17.00;86.20;;;;;;4990020;28;20323;-73
2023/09/23 09:44:16;;;;;;;78.90;75.60;;;17.00;86.50;;;;;;5010518;28;20261;-74
2023/09/23 09:46:43;;;;;;;85.23;81.60;;;17.10;86.20;;;;;;5007888;28;20601;-73
2023/09/23 09:49:10;;;;;;;73.50;70.57;;;17.10;83.60;;;;;;4985059;28;20042;-74
2023/09/23 09:51:39;;;;;;;50.20;47.83;;;17.10;84.40;;;;;;5008656;28;20379;-74
2023/09/23 09:54:09;;;;;;;47.60;45.47;;;17.30;85.70;;;;;;5015508;28;20310;-74
2023/09/23 09:56:36;;;;;;;50.73;48.63;;;17.40;83.20;;;;;;4997302;28;20378;-74
2023/09/23 09:59:03;;;;;;;66.67;63.87;;;17.40;82.40;;;;;;4998270;28;20721;-74
2023/09/23 10:01:29;;;;;;;79.23;76.13;;;17.40;83.60;;;;;;4997724;28;20516;-74
2023/09/23 10:03:55;;;;;;;46.23;44.10;;;17.50;84.60;;;;;;4994586;28;20759;-74
2023/09/23 10:06:22;;;;;;;50.97;48.73;;;17.50;81.80;;;;;;5002829;28;20277;-74
2023/09/23 10:08:49;;;;;;;54.40;51.97;;;17.50;81.80;;;;;;5026128;28;20030;-75
2023/09/23 10:11:16;;;;;;;50.57;48.33;;;17.50;81.40;;;;;;5009658;28;20125;-75
2023/09/23 10:13:42;;;;;;;57.27;54.90;;;17.50;81.80;;;;;;5007933;28;20290;-73
2023/09/23 10:16:13;;;;;;;55.47;53.07;;;17.60;83.40;;;;;;5008014;28;20103;-73
2023/09/23 10:18:40;;;;;;;50.63;48.20;;;17.70;82.90;;;;;;4985259;28;20046;-72
2023/09/23 10:21:20;;;;;;;53.70;51.40;;;17.80;81.40;;;;;;4998872;28;20072;-74
2023/09/23 10:23:46;;;;;;;68.83;65.60;;;17.70;80.50;;;;;;5005404;28;20040;-74
2023/09/23 10:26:14;;;;;;;57.37;54.87;;;17.60;78.70;;;;;;5006320;28;20037;-73
2023/09/23 10:28:41;;;;;;;65.50;62.70;;;17.50;79.60;;;;;;4984690;28;20042;-73
2023/09/23 10:31:06;;;;;;;79.00;75.27;;;17.50;80.30;;;;;;5002463;28;20045;-73
2023/09/23 10:33:34;;;;;;;64.80;62.03;;;17.50;79.60;;;;;;5010901;28;20782;-75
2023/09/23 10:36:00;;;;;;;65.20;62.47;;;17.40;79.90;;;;;;5008018;28;20049;-74
2023/09/23 10:38:30;;;;;;;49.10;47.07;;;17.40;80.40;;;;;;5002602;28;20049;-75
2023/09/23 10:40:56;;;;;;;57.63;55.23;;;17.40;80.00;;;;;;5007498;28;20116;-74
2023/09/23 10:43:22;;;;;;;54.33;52.10;;;17.40;78.90;;;;;;4996417;28;20076;-74
2023/09/23 10:45:52;;;;;;;55.90;53.23;;;17.40;79.50;;;;;;5010247;28;20136;-75
2023/09/23 10:48:19;;;;;;;80.07;75.80;;;17.40;81.20;;;;;;5008214;28;20100;-74
2023/09/23 10:50:45;;;;;;;59.83;57.10;;;17.50;79.70;;;;;;5016120;28;20523;-75
2023/09/23 10:53:14;;;;;;;50.30;47.90;;;17.50;79.50;;;;;;4997231;28;21701;-75
2023/09/23 10:55:40;;;;;;;54.77;52.37;;;17.50;81.40;;;;;;5010599;28;20056;-75
2023/09/23 10:58:10;;;;;;;77.53;74.23;;;17.70;82.80;;;;;;4988167;28;20132;-74
2023/09/23 11:00:37;;;;;;;52.30;49.97;;;18.00;80.70;;;;;;5006980;28;20124;-74
2023/09/23 11:03:11;;;;;;;39.23;37.60;;;18.10;79.40;;;;;;5000934;28;20057;-73
2023/09/23 11:05:38;;;;;;;32.38;30.85;;;18.20;80.50;;;;;;5010850;28;20109;-75
2023/09/23 11:08:12;;;;;;;65.90;63.20;;;18.10;79.70;;;;;;5005200;28;20448;-75
2023/09/23 11:10:49;;;;;;;75.63;72.53;;;18.00;79.00;;;;;;5008532;28;20113;-74
2023/09/23 11:13:15;;;;;;;79.10;75.87;;;17.80;79.50;;;;;;5009230;28;20125;-74
2023/09/23 11:15:44;;;;;;;93.33;89.50;;;17.70;80.50;;;;;;4993351;28;20466;-74
2023/09/23 11:18:17;;;;;;;104.83;100.47;;;17.60;80.50;;;;;;5008991;28;20033;-73
2023/09/23 11:20:47;;;;;;;87.13;83.50;;;17.50;82.00;;;;;;5010602;28;20041;-73
2023/09/23 11:23:13;;;;;;;91.00;87.13;;;17.50;83.00;;;;;;5000355;28;20045;-74
2023/09/23 11:25:45;;;;;;;96.90;92.67;;;17.50;83.30;;;;;;5009857;28;20092;-74
2023/09/23 11:28:26;;;;;;;79.27;75.93;;;17.60;82.90;;;;;;5000995;28;20034;-74
2023/09/23 11:30:53;;;;;;;129.13;123.17;;;17.60;82.10;;;;;;5009085;28;20084;-74
2023/09/23 11:33:21;;;;;;;116.63;111.80;;;17.50;80.20;;;;;;5006500;28;20176;-74
2023/09/23 11:35:47;;;;;;;90.33;86.67;;;17.50;80.30;;;;;;5005497;28;20050;-75
2023/09/23 11:38:14;;;;;;;90.53;86.87;;;17.50;81.60;;;;;;5012642;28;20084;-75
2023/09/23 11:40:40;;;;;;;69.37;66.63;;;17.70;82.50;;;;;;5006462;28;20045;-74
2023/09/23 11:43:07;;;;;;;58.00;55.60;;;17.80;80.30;;;;;;4993483;28;20049;-75
2023/09/23 11:45:33;;;;;;;63.00;60.27;;;17.80;78.20;;;;;;5004556;28;20119;-75
2023/09/23 11:47:59;;;;;;;64.17;61.57;;;17.70;76.70;;;;;;4991884;28;20034;-74
2023/09/23 11:50:29;;;;;;;55.17;52.83;;;17.70;78.00;;;;;;5006229;28;20045;-75
2023/09/23 11:52:55;;;;;;;55.03;52.67;;;17.80;78.90;;;;;;5015815;28;20075;-75
2023/09/23 11:55:22;;;;;;;65.33;62.70;;;17.90;76.90;;;;;;5012597;28;20405;-75
2023/09/23 11:57:48;;;;;;;43.80;41.90;;;18.00;78.00;;;;;;5014898;28;20405;-75
2023/09/23 12:00:15;;;;;;;62.60;60.00;;;18.10;77.50;;;;;;5006525;28;20409;-74
2023/09/23 12:02:41;;;;;;;70.03;67.23;;;18.10;75.10;;;;;;5011825;28;20053;-75
2023/09/23 12:05:08;;;;;;;42.63;40.90;;;18.10;75.40;;;;;;5002270;28;20050;-75
2023/09/23 12:07:34;;;;;;;31.50;30.23;;;18.20;76.40;;;;;;5002123;28;20048;-74
2023/09/23 12:10:03;;;;;;;32.10;30.80;;;18.30;73.90;;;;;;5015491;28;20045;-74
2023/09/23 12:12:29;;;;;;;51.50;49.40;;;18.30;74.40;;;;;;4988921;28;20054;-74
2023/09/23 12:14:55;;;;;;;118.20;113.13;;;18.40;74.00;;;;;;4992866;28;20046;-75
2023/09/23 12:17:20;;;;;;;96.60;92.40;;;18.50;73.60;;;;;;5005750;28;20056;-75
2023/09/23 12:19:47;;;;;;;24.37;23.30;;;18.60;73.40;;;;;;5001892;28;20457;-75
2023/09/23 12:22:15;;;;;;;53.77;51.50;;;18.60;72.80;;;;;;5009706;28;21601;-74
2023/09/23 12:24:45;;;;;;;107.67;103.23;;;18.70;73.00;;;;;;5008562;28;20042;-74
2023/09/23 12:27:11;;;;;;;98.73;94.53;;;18.70;71.90;;;;;;5002664;28;20497;-74
2023/09/23 12:29:38;;;;;;;78.53;75.20;;;18.70;70.20;;;;;;5009216;28;20045;-74